الصفحة الرئيسية
METAR-TAF:

METAR-TAF

مطار :

مطار عرعر المحلي

عرعر, السعودية

دائرة عرض: 30-54N, خط طول: 041-08E, ارتفاع: 555 متر

مراقبة الطقس الحالي

تاريخ ووقت الإصدار 1ساعة و 18 دقيقة قبل الساعة 02:00UTC
ريح 6 عقدة من الشمال
درجة الحرارة 29°درجة مئوية
الرطوبة 15%
ضغط 1007 hPa
الرؤية 10 كم أو أكثر
الغيوم لا تقل 1500 م ولا وجود لمزنة ركامية السحاب الأسود

METAR: OERR 190200Z 01006KT CAVOK 29/00 Q1007 NOSIG

زمن: 06:18 (03:18 UTC)

توقعات

تاريخ ووقت الإصدار 4ساعات و 18 دقيقة قبل الساعة 23:00UTC
التوقعات صالحة من19 الساعة 00 UTC إلى 20 الساعة 06 UTC
ريح 10 عقدة من الشرق
الرؤية 10 كم أو أكثر
غيوم متفرقة على ارتفاع 4000 قدم
مؤقت
من 19 الساعة 00 UTC إلى 19 الساعة 06 UTC
غيوم قليلة على ارتفاع 3500 قدم, مزنة ركامية.
أصبح
من 19 الساعة 10 UTC إلى 19 الساعة 12 UTC
ريح 10 عقدة من الغرب/الشمال الغربي
أصبح
من 19 الساعة 18 UTC إلى 19 الساعة 20 UTC
ريح 10 عقدة من الشرق/الشمال الشرقي

TAF: OERR 182300Z 1900/2006 09010KT 9999 SCT040 TEMPO 1900/1906 FEW035CB BECMG 1910/1912 30010KT BECMG 1918/1920 06010KT

أرصاد الطقس والتوقعات من أكثر من 4000 مطار (تقارير الطقس للمطار METAR والتنبؤ بالطقس بالمطارTAF).

المحطات المتاحة هي النقط الصفراء والحمراء على الخريطة.

حرك المؤشر فوق النقطة لمعرفة اسم المحطة.

ثم انقر لمعرفة أرصاد وتوقعات الطقس.

لتغيير الخارطة: اضغط على الأزرار الخضراء مع رمز الصليب الأسود للتكبير. على الزر الأخضر مع شرطة للتصغير، أو على الأسهم الخضراء للخرائط المجاورة.


METAR-TAF: